createdAt,value
2016-10-06T14:31:00.828Z,924.97
2016-10-06T14:40:32.802Z,925.06
2016-10-06T14:41:43.342Z,924.98
2016-10-06T14:43:08.411Z,924.87
2016-10-06T14:44:18.950Z,924.83
2016-10-06T14:45:29.492Z,924.8
2016-10-06T14:46:40.128Z,924.78
2016-10-06T14:47:50.664Z,924.75
2016-10-06T14:49:01.216Z,924.83
2016-10-06T14:50:11.754Z,924.67
2016-10-06T14:51:22.753Z,924.63
2016-10-06T14:52:33.292Z,924.71
2016-10-06T14:53:43.855Z,924.66
2016-10-06T14:54:54.394Z,924.58
2016-10-06T14:56:04.936Z,924.56
2016-10-06T14:57:15.485Z,924.56
2016-10-06T14:58:26.026Z,924.57
2016-10-06T14:59:36.529Z,924.71
2016-10-06T15:00:46.981Z,924.67
2016-10-06T15:01:57.424Z,924.66
2016-10-06T15:03:22.673Z,924.69
2016-10-06T15:04:33.121Z,924.64
2016-10-06T15:05:43.569Z,924.65
2016-10-06T15:06:54.029Z,924.66
2016-10-06T15:08:04.484Z,924.57
2016-10-06T15:09:14.931Z,924.68
2016-10-06T15:10:25.367Z,924.66
2016-10-06T15:11:35.698Z,924.61
2016-10-06T15:13:00.594Z,924.52
2016-10-06T15:14:11.188Z,924.47
2016-10-06T15:15:21.516Z,924.42
2016-10-06T15:16:31.845Z,924.48
2016-10-06T15:17:42.174Z,924.47
2016-10-06T15:18:52.500Z,924.47
2016-10-06T15:20:02.829Z,924.43
2016-10-06T15:21:13.156Z,924.43
2016-10-06T15:22:38.052Z,924.39
2016-10-06T15:23:48.387Z,924.41
2016-10-06T15:24:58.715Z,924.35
2016-10-06T15:26:09.518Z,924.3
2016-10-06T15:27:19.844Z,924.3
2016-10-06T15:28:30.170Z,924.26
2016-10-06T15:29:40.557Z,924.16
2016-10-06T15:30:50.884Z,924.18
2016-10-06T15:32:01.205Z,924.14
2016-10-06T15:33:11.533Z,924.12
2016-10-06T15:34:21.871Z,924.06
2016-10-06T15:35:32.455Z,924.05
2016-10-06T15:36:42.782Z,923.99
2016-10-06T15:37:53.109Z,923.93
2016-10-06T15:39:03.434Z,923.93
2016-10-06T15:40:13.761Z,923.94
2016-10-06T15:41:24.341Z,923.9
2016-10-06T15:42:34.672Z,923.92
2016-10-06T15:43:45.001Z,923.91
2016-10-06T15:44:55.331Z,923.89
2016-10-06T15:46:05.661Z,923.81
2016-10-06T15:47:16.239Z,923.8
2016-10-06T15:48:26.560Z,923.74
2016-10-06T15:49:36.887Z,923.71
2016-10-06T15:50:47.209Z,923.76
2016-10-06T15:51:57.538Z,923.75
2016-10-06T15:53:07.933Z,923.76
2016-10-06T15:54:18.261Z,923.72
2016-10-06T15:55:28.590Z,923.71
2016-10-06T15:56:53.488Z,923.71
2016-10-06T15:58:03.829Z,923.71
2016-10-06T15:59:14.157Z,923.73
2016-10-06T16:00:24.484Z,923.7
2016-10-06T16:01:34.812Z,923.76
2016-10-06T16:02:59.709Z,923.67
2016-10-06T16:04:10.032Z,923.61
2016-10-06T16:05:34.930Z,923.61
2016-10-06T16:06:45.258Z,923.58
2016-10-06T16:07:55.588Z,923.57
2016-10-06T16:09:05.916Z,923.64
2016-10-06T16:10:16.245Z,923.6
2016-10-06T16:11:26.580Z,923.64
2016-10-06T16:12:36.909Z,923.58
2016-10-06T16:13:47.236Z,923.58
2016-10-06T16:14:57.564Z,923.53
2016-10-06T16:16:07.899Z,923.59
2016-10-06T16:17:18.223Z,923.55
2016-10-06T16:18:28.555Z,923.56
2016-10-06T16:19:38.876Z,923.54
2016-10-06T16:20:49.461Z,923.58
2016-10-06T16:21:59.785Z,923.53
2016-10-06T16:23:10.116Z,923.54
2016-10-06T16:24:20.442Z,923.45
2016-10-06T16:25:30.786Z,923.47
2016-10-06T16:26:41.119Z,923.45
2016-10-06T16:28:06.021Z,923.48
2016-10-06T16:29:30.917Z,923.41
2016-10-06T16:30:41.250Z,923.4
2016-10-06T16:31:51.579Z,923.39
2016-10-06T16:33:01.906Z,923.3
2016-10-06T16:34:12.717Z,923.25
2016-10-06T16:35:23.046Z,923.21
2016-10-06T16:36:33.377Z,923.2
2016-10-06T16:37:43.716Z,923.23
2016-10-06T16:38:54.055Z,923.14
2016-10-06T16:40:04.384Z,923.12
2016-10-06T16:41:15.197Z,923.23
2016-10-06T16:42:25.528Z,923.12
2016-10-06T16:43:35.863Z,922.9
2016-10-06T16:44:46.193Z,923.08
2016-10-06T16:45:57.028Z,923.01
2016-10-06T16:47:07.380Z,922.94
2016-10-06T16:48:17.705Z,922.97
2016-10-06T16:49:28.033Z,922.95
2016-10-06T16:50:38.367Z,922.88
2016-10-06T16:52:03.359Z,922.89
2016-10-06T16:53:13.808Z,922.85
2016-10-06T16:54:24.254Z,922.89
2016-10-06T16:55:34.699Z,922.9
2016-10-06T16:56:45.149Z,922.86
2016-10-06T16:57:57.165Z,922.83
2016-10-06T16:59:07.612Z,922.84
2016-10-06T17:00:18.056Z,922.89
2016-10-06T17:01:28.504Z,922.91
2016-10-06T17:02:38.951Z,922.82
2016-10-06T17:03:49.407Z,922.84
2016-10-06T17:04:59.855Z,922.82
2016-10-06T17:06:10.563Z,922.9
2016-10-06T17:07:35.552Z,922.78
2016-10-06T17:08:46.007Z,922.81
2016-10-06T17:09:56.463Z,922.79
2016-10-06T17:11:06.918Z,922.81
2016-10-06T17:12:17.472Z,922.82
2016-10-06T17:13:27.938Z,922.85
2016-10-06T17:14:38.498Z,922.73
2016-10-06T17:15:49.038Z,923.26
2016-10-06T17:16:59.829Z,923.19
2016-10-06T17:18:10.375Z,923.22
2016-10-06T17:19:20.917Z,923.1
2016-10-06T17:20:31.463Z,923.07
2016-10-06T17:21:42.006Z,922.97
2016-10-06T17:22:52.885Z,922.96
2016-10-06T17:24:03.422Z,923.12
2016-10-06T17:25:13.841Z,923.19
2016-10-06T17:26:24.261Z,923.21
2016-10-06T17:27:34.698Z,923.24
2016-10-06T17:28:45.366Z,923.26
2016-10-06T17:29:55.784Z,923.29
2016-10-06T17:31:06.203Z,923.28
2016-10-06T17:32:16.618Z,923.33
2016-10-06T17:33:27.038Z,923.22
2016-10-06T17:34:37.454Z,923.18
2016-10-06T17:35:47.881Z,923.12
2016-10-06T17:38:24.364Z,923.06
2016-10-06T17:39:34.787Z,923.04
2016-10-06T17:41:00.060Z,923
2016-10-06T17:42:10.475Z,922.94
2016-10-06T17:43:20.888Z,922.95
2016-10-06T17:44:31.327Z,922.91
2016-10-06T17:45:56.309Z,922.94
2016-10-06T17:47:06.742Z,922.96
2016-10-06T17:48:17.163Z,923.06
2016-10-06T17:49:27.592Z,923
2016-10-06T17:50:38.030Z,922.98
2016-10-06T17:51:48.465Z,922.95
2016-10-06T17:52:58.906Z,922.9
2016-10-06T17:54:09.361Z,922.87
2016-10-06T17:55:20.335Z,922.87
2016-10-06T17:56:31.336Z,922.88
2016-10-06T17:57:42.085Z,922.92
2016-10-06T17:58:53.117Z,923.02
2016-10-06T18:00:03.598Z,923.09
2016-10-06T18:01:14.098Z,922.95
2016-10-06T18:02:24.596Z,922.93
2016-10-06T18:03:35.105Z,922.99
2016-10-06T18:04:45.609Z,922.95
2016-10-06T18:05:56.602Z,922.93
2016-10-06T18:07:07.095Z,922.93
2016-10-06T18:08:17.585Z,922.98
2016-10-06T18:09:28.051Z,923.06
2016-10-06T18:10:38.500Z,923.08
2016-10-06T18:11:48.920Z,923.17
2016-10-06T18:12:59.354Z,923.18
2016-10-06T18:14:09.783Z,923.18
2016-10-06T18:15:20.305Z,923.21
2016-10-06T18:16:45.272Z,923.26
2016-10-06T18:17:55.690Z,923.25
2016-10-06T18:19:06.109Z,923.23
2016-10-06T18:20:31.176Z,923.28
2016-10-06T18:21:41.593Z,923.25
2016-10-06T18:22:52.004Z,923.21
2016-10-06T18:24:02.636Z,923.21
2016-10-06T18:25:13.544Z,923.19
2016-10-06T18:26:23.967Z,923.2
2016-10-06T18:27:34.389Z,923.14
2016-10-06T18:28:44.805Z,923.24
2016-10-06T18:29:55.219Z,923.2
2016-10-06T18:31:05.655Z,923.29
2016-10-06T18:32:16.205Z,923.31
2016-10-06T18:33:26.743Z,923.34
2016-10-06T18:34:37.301Z,923.34
2016-10-06T18:35:48.023Z,923.28
2016-10-06T18:36:58.559Z,923.29
2016-10-06T18:38:09.096Z,923.32
2016-10-06T18:39:19.634Z,923.29
2016-10-06T18:40:30.668Z,923.32
2016-10-06T18:41:41.218Z,923.34
2016-10-06T18:42:51.758Z,923.3
2016-10-06T18:44:02.401Z,923.26
2016-10-06T18:45:12.942Z,923.23
2016-10-06T18:46:23.475Z,923.27
2016-10-06T18:47:34.012Z,923.22
2016-10-06T18:48:44.545Z,923.34
2016-10-06T18:49:55.085Z,923.33
2016-10-06T18:51:05.624Z,923.35
2016-10-06T18:52:16.159Z,923.42
2016-10-06T18:53:26.695Z,923.36
2016-10-06T18:54:37.231Z,923.32
2016-10-06T18:55:48.279Z,923.32
2016-10-06T18:56:58.820Z,923.31
2016-10-06T18:58:09.354Z,923.25
2016-10-06T18:59:34.418Z,923.27
2016-10-06T19:00:44.963Z,923.29
2016-10-06T19:01:55.499Z,923.26
2016-10-06T19:03:06.040Z,923.34
2016-10-06T19:04:17.061Z,923.42
2016-10-06T19:05:27.478Z,923.48
2016-10-06T19:06:37.894Z,923.51
2016-10-06T19:07:48.314Z,923.51
2016-10-06T19:08:58.723Z,923.54
2016-10-06T19:10:09.140Z,923.47
2016-10-06T19:11:34.101Z,923.58
2016-10-06T19:12:45.282Z,923.63
2016-10-06T19:14:10.252Z,923.63
2016-10-06T19:15:20.673Z,923.58
2016-10-06T19:16:31.093Z,923.59
2016-10-06T19:17:41.607Z,923.68
2016-10-06T19:19:06.578Z,923.58
2016-10-06T19:20:16.994Z,923.64
2016-10-06T19:21:27.413Z,923.56
2016-10-06T19:22:37.826Z,923.64
2016-10-06T19:23:48.244Z,923.59
2016-10-06T19:24:58.663Z,923.64
2016-10-06T19:26:23.633Z,923.65
2016-10-06T19:27:48.697Z,923.67
2016-10-06T19:28:59.089Z,923.85
2016-10-06T19:30:09.905Z,924.01
2016-10-06T19:31:20.246Z,924.1
2016-10-06T19:32:30.570Z,924.13
2016-10-06T19:33:40.896Z,924.15
2016-10-06T19:34:51.698Z,924.08
2016-10-06T19:36:02.501Z,924.1
2016-10-06T19:37:12.824Z,924.08
2016-10-06T19:38:23.142Z,924.07
2016-10-06T19:39:33.718Z,924.04
2016-10-06T19:40:44.044Z,923.92
2016-10-06T19:41:54.368Z,923.92
2016-10-06T19:43:04.689Z,923.86
2016-10-06T19:44:15.013Z,923.9
2016-10-06T19:45:25.433Z,923.99
2016-10-06T19:46:35.758Z,924.02
2016-10-06T19:47:46.078Z,924.14
2016-10-06T19:48:56.401Z,924.24
2016-10-06T19:50:06.726Z,924.35
2016-10-06T19:51:17.299Z,924.43
2016-10-06T19:52:27.622Z,924.52
2016-10-06T19:53:37.953Z,924.53
2016-10-06T19:54:48.284Z,924.44
2016-10-06T19:55:58.603Z,924.39
2016-10-06T19:57:09.180Z,924.37
2016-10-06T19:58:19.506Z,924.34
2016-10-06T19:59:29.829Z,924.31
2016-10-06T20:00:40.159Z,924.38
2016-10-06T20:01:50.482Z,924.31
2016-10-06T20:03:00.805Z,924.35
